Time;durP1;ratioP1;P1;durP2;ratioP2;P2;SDS_P1;SDS_P2;PMS_P1;PMS_P2;Temp;Humidity;BMP_temperature;BMP_pressure;BME280_temperature;BME280_humidity;BME280_pressure;Samples;Min_cycle;Max_cycle;Signal;HPM_P1;HPM_P2
2023/09/19 00:00:43;;;;;;;8.80;1.98;;;14.40;99.90;;;;;;5031784;28;37099;-83
2023/09/19 00:03:11;;;;;;;9.20;1.90;;;14.40;99.90;;;;;;5029748;28;38611;-84
2023/09/19 00:05:38;;;;;;;8.82;1.85;;;14.50;99.90;;;;;;5040874;28;39178;-82
2023/09/19 00:08:05;;;;;;;9.02;1.90;;;14.70;99.90;;;;;;5033252;28;37044;-81
2023/09/19 00:10:34;;;;;;;10.27;1.80;;;14.70;99.90;;;;;;5029708;28;37554;-83
2023/09/19 00:13:05;;;;;;;9.55;2.08;;;14.70;99.90;;;;;;5033222;28;38921;-84
2023/09/19 00:15:37;;;;;;;8.07;1.90;;;14.70;99.90;;;;;;5024258;28;47246;-84
2023/09/19 00:18:06;;;;;;;6.35;1.80;;;14.60;99.90;;;;;;5045024;28;38718;-84
2023/09/19 00:20:34;;;;;;;8.52;1.95;;;14.60;99.90;;;;;;5026709;28;36089;-83
2023/09/19 00:23:08;;;;;;;8.73;2.13;;;14.50;99.90;;;;;;5034308;28;38877;-84
2023/09/19 00:25:38;;;;;;;9.20;2.05;;;14.50;99.90;;;;;;5041661;28;47211;-84
2023/09/19 00:28:06;;;;;;;10.93;2.45;;;14.50;99.90;;;;;;5040159;28;39229;-83
2023/09/19 00:30:32;;;;;;;8.05;1.98;;;14.60;99.90;;;;;;5041086;28;37455;-83
2023/09/19 00:33:00;;;;;;;12.18;2.55;;;14.60;99.90;;;;;;5041184;28;39581;-81
2023/09/19 00:35:27;;;;;;;14.20;2.15;;;14.60;99.90;;;;;;5043018;28;47547;-82
2023/09/19 00:37:53;;;;;;;7.78;1.90;;;14.60;99.90;;;;;;5045841;28;37868;-81
2023/09/19 00:40:21;;;;;;;17.05;2.75;;;14.60;99.90;;;;;;5041588;28;37323;-81
2023/09/19 00:42:48;;;;;;;12.48;2.30;;;14.60;99.90;;;;;;5021179;28;37513;-80
2023/09/19 00:45:17;;;;;;;11.35;1.85;;;14.60;99.90;;;;;;5010583;28;36977;-81
2023/09/19 00:47:49;;;;;;;11.80;2.97;;;14.70;99.90;;;;;;5034695;28;38887;-81
2023/09/19 00:50:19;;;;;;;13.48;3.17;;;14.70;99.90;;;;;;5019921;28;34817;-81
2023/09/19 00:52:50;;;;;;;10.43;2.15;;;14.70;99.90;;;;;;5015103;28;37926;-82
2023/09/19 00:55:19;;;;;;;10.65;2.38;;;14.80;99.90;;;;;;5023175;28;38621;-79
2023/09/19 00:57:46;;;;;;;14.27;2.05;;;14.80;99.90;;;;;;5036132;28;38840;-80
2023/09/19 01:00:16;;;;;;;13.43;2.28;;;14.70;99.90;;;;;;5041875;28;37740;-79
2023/09/19 01:02:43;;;;;;;10.30;2.25;;;14.70;99.90;;;;;;5433098;22;38185;-77
2023/09/19 01:05:09;;;;;;;11.85;2.40;;;14.70;99.90;;;;;;5065967;28;39170;-78
2023/09/19 01:07:40;;;;;;;17.80;2.55;;;14.80;99.90;;;;;;5084732;28;38105;-79
2023/09/19 01:10:17;;;;;;;14.32;2.60;;;14.80;99.90;;;;;;5079046;28;37327;-77
2023/09/19 01:13:10;;;;;;;6.95;2.15;;;14.90;99.90;;;;;;5083788;28;39614;-79
2023/09/19 01:15:39;;;;;;;;;;;14.90;99.90;;;;;;5061695;28;47579;-78
2023/09/19 01:18:48;;;;;;;10.85;2.47;;;14.90;99.90;;;;;;5080510;28;37928;-77
2023/09/19 01:21:41;;;;;;;16.05;2.60;;;14.80;99.90;;;;;;5052723;28;35477;-78
2023/09/19 01:24:43;;;;;;;13.57;2.42;;;14.80;99.90;;;;;;5078758;28;38813;-78
2023/09/19 01:27:38;;;;;;;11.70;2.25;;;14.90;99.90;;;;;;5071516;28;38771;-80
2023/09/19 01:30:17;;;;;;;14.15;2.67;;;14.90;99.90;;;;;;5030538;28;38008;-77
2023/09/19 01:32:46;;;;;;;17.00;2.75;;;14.90;99.90;;;;;;5060181;28;37351;-77
2023/09/19 01:35:13;;;;;;;16.90;3.38;;;14.90;99.90;;;;;;5061357;28;38048;-78
2023/09/19 01:37:42;;;;;;;10.48;2.25;;;14.90;99.90;;;;;;5060060;28;38738;-78
2023/09/19 01:40:16;;;;;;;12.95;2.63;;;14.90;99.90;;;;;;5079280;28;38584;-78
2023/09/19 01:42:49;;;;;;;9.32;2.30;;;14.90;99.90;;;;;;5076671;28;36417;-77
2023/09/19 01:45:34;;;;;;;9.80;2.75;;;14.80;99.90;;;;;;5060192;28;37579;-77
2023/09/19 01:48:36;;;;;;;15.27;2.45;;;14.90;99.90;;;;;;5074002;28;38265;-78
2023/09/19 01:51:06;;;;;;;11.88;2.40;;;14.90;99.90;;;;;;5081804;28;48694;-80
2023/09/19 01:53:56;;;;;;;10.90;2.20;;;14.90;99.90;;;;;;5074590;28;37277;-78
2023/09/19 01:56:35;;;;;;;9.38;2.03;;;15.00;99.90;;;;;;5068517;28;38725;-78
2023/09/19 01:59:13;;;;;;;12.60;2.85;;;14.90;99.90;;;;;;5058336;28;39339;-78
2023/09/19 02:01:40;;;;;;;12.00;2.33;;;14.90;99.90;;;;;;5052991;28;37045;-77
2023/09/19 02:04:07;;;;;;;14.63;2.63;;;14.90;99.90;;;;;;5065669;28;36065;-77
2023/09/19 02:06:37;;;;;;;14.00;2.70;;;14.90;99.90;;;;;;5065738;28;37836;-80
2023/09/19 02:09:03;;;;;;;10.93;3.03;;;14.90;99.90;;;;;;5049272;28;36085;-78
2023/09/19 02:11:30;;;;;;;13.63;2.85;;;14.80;99.90;;;;;;5073637;28;38095;-76
2023/09/19 02:13:56;;;;;;;6.68;1.80;;;14.80;99.90;;;;;;5057294;28;37298;-78
2023/09/19 02:16:22;;;;;;;7.10;2.30;;;14.80;99.90;;;;;;5060124;28;38603;-78
2023/09/19 02:18:49;;;;;;;14.75;2.55;;;14.80;99.90;;;;;;5082753;28;38259;-75
2023/09/19 02:21:17;;;;;;;13.05;2.22;;;14.80;99.90;;;;;;5079332;28;38048;-76
2023/09/19 02:23:44;;;;;;;9.57;2.17;;;14.80;99.90;;;;;;5083582;28;37408;-77
2023/09/19 02:26:12;;;;;;;8.18;2.38;;;14.80;99.90;;;;;;5061933;28;39097;-76
2023/09/19 02:28:38;;;;;;;10.52;2.20;;;14.90;99.90;;;;;;5065613;28;38640;-77
2023/09/19 02:31:05;;;;;;;12.80;2.28;;;14.80;99.90;;;;;;5061885;28;36655;-77
2023/09/19 02:33:32;;;;;;;9.00;1.98;;;14.80;99.90;;;;;;5069845;28;36496;-76
2023/09/19 02:35:59;;;;;;;8.45;1.90;;;14.80;99.90;;;;;;5071305;28;37855;-77
2023/09/19 02:38:25;;;;;;;13.63;2.10;;;14.80;99.90;;;;;;5084689;28;38117;-77
2023/09/19 02:40:52;;;;;;;13.68;2.03;;;14.90;99.90;;;;;;5086273;28;38599;-79
2023/09/19 02:43:21;;;;;;;11.00;1.92;;;14.90;99.90;;;;;;5067840;28;36092;-77
2023/09/19 02:45:53;;;;;;;9.77;2.15;;;14.80;99.90;;;;;;5085422;28;38393;-77
2023/09/19 02:48:20;;;;;;;9.90;2.08;;;14.90;99.90;;;;;;5088604;28;37277;-77
2023/09/19 02:50:52;;;;;;;7.32;1.80;;;14.80;99.90;;;;;;5064725;28;37205;-77
2023/09/19 02:53:18;;;;;;;;;;;14.80;99.90;;;;;;5087988;28;34326;-77
2023/09/19 02:55:46;;;;;;;17.92;2.33;;;14.80;99.90;;;;;;5093116;28;40027;-78
2023/09/19 02:58:14;;;;;;;11.88;2.08;;;14.70;99.90;;;;;;5094718;28;38109;-79
2023/09/19 03:00:41;;;;;;;13.85;2.40;;;14.70;99.90;;;;;;5085425;28;37198;-76
2023/09/19 03:03:08;;;;;;;9.88;2.20;;;14.70;99.90;;;;;;5095792;28;37972;-77
2023/09/19 03:05:35;;;;;;;13.88;2.70;;;14.60;99.90;;;;;;5073693;28;39127;-77
2023/09/19 03:08:01;;;;;;;17.55;3.03;;;14.50;99.90;;;;;;5062804;28;37730;-76
2023/09/19 03:10:29;;;;;;;14.95;2.80;;;14.50;99.90;;;;;;5066919;28;47316;-75
2023/09/19 03:12:55;;;;;;;17.45;3.38;;;14.50;99.90;;;;;;5067388;28;36117;-76
2023/09/19 03:15:21;;;;;;;11.95;2.72;;;14.50;99.90;;;;;;5089064;28;38325;-77
2023/09/19 03:17:49;;;;;;;8.68;2.08;;;14.50;99.90;;;;;;5085933;28;39088;-76
2023/09/19 03:20:18;;;;;;;14.15;2.90;;;14.60;99.90;;;;;;5083238;28;37989;-77
2023/09/19 03:22:46;;;;;;;11.10;2.60;;;14.60;99.90;;;;;;5088213;28;37799;-77
2023/09/19 03:25:12;;;;;;;16.88;2.70;;;14.50;99.90;;;;;;5070376;28;38593;-76
2023/09/19 03:27:39;;;;;;;16.10;3.05;;;14.50;99.90;;;;;;5073946;28;38555;-76
2023/09/19 03:30:08;;;;;;;9.63;2.38;;;14.50;99.90;;;;;;5071216;28;37367;-76
2023/09/19 03:32:36;;;;;;;10.77;2.60;;;14.50;99.90;;;;;;5064503;28;47145;-76
2023/09/19 03:35:05;;;;;;;13.40;2.97;;;14.50;99.90;;;;;;5086584;28;38927;-76
2023/09/19 03:37:32;;;;;;;11.57;2.63;;;14.50;99.90;;;;;;5091183;28;48284;-77
2023/09/19 03:39:58;;;;;;;7.65;2.05;;;14.60;99.90;;;;;;5068952;28;37472;-77
2023/09/19 03:42:26;;;;;;;12.32;2.67;;;14.60;99.90;;;;;;5082287;28;37345;-76
2023/09/19 03:44:52;;;;;;;19.77;2.92;;;14.60;99.90;;;;;;5088512;28;40282;-78
2023/09/19 03:47:21;;;;;;;15.98;2.58;;;14.60;99.90;;;;;;5062515;28;37570;-75
2023/09/19 03:49:48;;;;;;;13.45;2.88;;;14.60;99.90;;;;;;5080664;28;39368;-75
2023/09/19 03:52:15;;;;;;;14.20;2.33;;;14.60;99.90;;;;;;5075729;28;37801;-76
2023/09/19 03:54:43;;;;;;;11.20;2.42;;;14.60;99.90;;;;;;5079979;28;37313;-75
2023/09/19 03:57:09;;;;;;;13.27;2.38;;;14.60;99.90;;;;;;5076152;28;39217;-77
2023/09/19 03:59:35;;;;;;;11.38;2.67;;;14.60;99.90;;;;;;5081388;28;37019;-77
2023/09/19 04:02:02;;;;;;;12.95;2.63;;;14.60;99.90;;;;;;5078982;28;36875;-76
2023/09/19 04:04:29;;;;;;;10.95;2.30;;;14.60;99.90;;;;;;5060942;28;38050;-77
2023/09/19 04:06:55;;;;;;;11.23;2.50;;;14.60;99.90;;;;;;5065562;28;39471;-77
2023/09/19 04:09:21;;;;;;;12.65;2.83;;;14.60;99.90;;;;;;5081577;28;37664;-76
2023/09/19 04:11:47;;;;;;;15.82;2.55;;;14.60;99.90;;;;;;5062932;28;37442;-76
2023/09/19 04:14:13;;;;;;;10.32;2.58;;;14.60;99.90;;;;;;5063425;28;37659;-76
2023/09/19 04:16:39;;;;;;;12.50;2.67;;;14.60;99.90;;;;;;5076970;28;37433;-77
2023/09/19 04:19:05;;;;;;;11.77;2.60;;;14.70;99.90;;;;;;5091747;28;37864;-76
2023/09/19 04:21:31;;;;;;;14.38;2.90;;;14.70;99.90;;;;;;5094324;28;38219;-76
2023/09/19 04:23:58;;;;;;;12.40;2.50;;;14.70;99.90;;;;;;5073452;28;39137;-77
2023/09/19 04:26:25;;;;;;;10.40;2.30;;;14.70;99.90;;;;;;5086516;28;38536;-77
2023/09/19 04:28:52;;;;;;;11.82;2.17;;;14.70;99.90;;;;;;5083660;28;39170;-77
2023/09/19 04:31:19;;;;;;;10.70;2.72;;;14.70;99.90;;;;;;5062226;28;36421;-76
2023/09/19 04:33:45;;;;;;;14.18;2.47;;;14.70;99.90;;;;;;5073909;28;37747;-77
2023/09/19 04:36:13;;;;;;;13.75;2.63;;;14.70;99.90;;;;;;5081089;28;37978;-78
2023/09/19 04:38:39;;;;;;;12.40;2.38;;;14.70;99.90;;;;;;5055577;28;38118;-75
2023/09/19 04:41:06;;;;;;;8.30;2.15;;;14.70;99.90;;;;;;5076021;28;36008;-77
2023/09/19 04:43:32;;;;;;;14.07;3.35;;;14.80;99.90;;;;;;5078688;28;39852;-78
2023/09/19 04:46:00;;;;;;;11.57;2.63;;;14.80;99.90;;;;;;5078289;28;36942;-77
2023/09/19 04:48:26;;;;;;;9.80;2.08;;;14.80;99.90;;;;;;5079038;28;36912;-78
2023/09/19 04:50:53;;;;;;;10.45;2.75;;;14.80;99.90;;;;;;5060170;28;36393;-78
2023/09/19 04:53:21;;;;;;;14.63;2.67;;;14.80;99.90;;;;;;5056277;28;38034;-77
2023/09/19 04:55:52;;;;;;;13.50;2.42;;;14.80;99.90;;;;;;5082501;28;39254;-77
2023/09/19 04:58:20;;;;;;;12.25;2.45;;;14.80;99.90;;;;;;5074165;28;38424;-79
2023/09/19 05:00:46;;;;;;;15.65;2.55;;;14.80;99.90;;;;;;5054415;28;36895;-79
2023/09/19 05:03:12;;;;;;;12.00;2.35;;;14.80;99.90;;;;;;5055827;28;38637;-77
2023/09/19 05:05:41;;;;;;;13.10;2.53;;;14.80;99.90;;;;;;5060541;28;37728;-77
2023/09/19 05:08:08;;;;;;;11.48;2.72;;;14.70;99.90;;;;;;5077398;28;37811;-77
2023/09/19 05:10:38;;;;;;;14.95;3.17;;;14.70;99.90;;;;;;5080572;28;37652;-77
2023/09/19 05:13:05;;;;;;;14.45;2.78;;;14.70;99.90;;;;;;5051608;28;39375;-76
2023/09/19 05:15:31;;;;;;;10.70;2.58;;;14.70;99.90;;;;;;5080166;28;38496;-75
2023/09/19 05:17:57;;;;;;;16.42;3.13;;;14.70;99.90;;;;;;5079858;28;37172;-78
2023/09/19 05:20:29;;;;;;;12.50;2.83;;;14.70;99.90;;;;;;5067610;28;37510;-79
2023/09/19 05:23:03;;;;;;;13.98;2.53;;;14.70;99.90;;;;;;5061612;28;39264;-77
2023/09/19 05:25:31;;;;;;;13.15;3.10;;;14.70;99.90;;;;;;5083196;28;48432;-78
2023/09/19 05:27:59;;;;;;;14.63;2.92;;;14.70;99.90;;;;;;5056395;28;37246;-77
2023/09/19 05:30:27;;;;;;;21.98;4.18;;;14.70;99.90;;;;;;5084906;28;35591;-77
2023/09/19 05:32:54;;;;;;;12.32;2.50;;;14.80;99.90;;;;;;5079793;28;39817;-76
2023/09/19 05:35:21;;;;;;;12.02;2.42;;;14.80;99.90;;;;;;5078995;28;38261;-76
2023/09/19 05:37:50;;;;;;;18.10;3.03;;;14.80;99.90;;;;;;5071091;28;38706;-75
2023/09/19 05:40:20;;;;;;;11.13;2.92;;;14.80;99.90;;;;;;5071812;28;36836;-80
2023/09/19 05:42:46;;;;;;;14.75;2.67;;;14.80;99.90;;;;;;5075158;28;38374;-77
2023/09/19 05:45:14;;;;;;;10.75;3.13;;;14.80;99.90;;;;;;5058747;28;38155;-80
2023/09/19 05:47:45;;;;;;;13.65;2.38;;;14.70;99.90;;;;;;5057043;28;37436;-77
2023/09/19 05:50:12;;;;;;;18.85;3.95;;;14.70;99.90;;;;;;5061565;28;38566;-76
2023/09/19 05:52:38;;;;;;;11.98;2.60;;;14.70;99.90;;;;;;5047159;28;39859;-76
2023/09/19 05:55:07;;;;;;;15.38;3.65;;;14.70;99.90;;;;;;5058370;28;37505;-78
2023/09/19 05:57:39;;;;;;;14.23;2.72;;;14.70;99.90;;;;;;5082019;28;48714;-76
2023/09/19 06:00:10;;;;;;;12.38;3.00;;;14.60;99.90;;;;;;5075138;28;37649;-75
2023/09/19 06:02:37;;;;;;;13.40;2.70;;;14.60;99.90;;;;;;5070944;28;40112;-77
2023/09/19 06:05:10;;;;;;;11.40;2.40;;;14.70;99.90;;;;;;5071774;28;38113;-77
2023/09/19 06:07:37;;;;;;;15.30;2.97;;;14.60;99.90;;;;;;5056488;28;47363;-75
2023/09/19 06:10:07;;;;;;;11.45;2.67;;;14.70;99.90;;;;;;5058874;28;36513;-77
2023/09/19 06:12:37;;;;;;;11.60;2.80;;;14.70;99.90;;;;;;5074525;28;48963;-77
2023/09/19 06:15:08;;;;;;;16.17;3.17;;;14.70;99.90;;;;;;5077761;28;36679;-75
2023/09/19 06:17:37;;;;;;;11.45;2.88;;;14.80;99.90;;;;;;5069239;28;48599;-74
2023/09/19 06:20:14;;;;;;;13.60;2.92;;;14.80;99.90;;;;;;5070821;28;36332;-75
2023/09/19 06:22:41;;;;;;;18.92;3.00;;;14.80;99.90;;;;;;5069571;28;50165;-76
2023/09/19 06:25:12;;;;;;;13.55;2.83;;;14.80;99.90;;;;;;5074128;28;39245;-76
2023/09/19 06:27:42;;;;;;;10.63;2.40;;;14.80;99.90;;;;;;5063521;28;39085;-74
2023/09/19 06:30:11;;;;;;;13.52;2.60;;;14.80;99.90;;;;;;5064770;28;37684;-72
2023/09/19 06:32:37;;;;;;;15.70;2.83;;;14.80;99.90;;;;;;5044159;28;37655;-73
2023/09/19 06:35:07;;;;;;;14.52;3.85;;;14.90;99.90;;;;;;5065719;28;39013;-73
2023/09/19 06:37:34;;;;;;;15.70;2.92;;;14.80;99.90;;;;;;5067450;28;47801;-73
2023/09/19 06:40:00;;;;;;;12.02;2.20;;;14.90;99.90;;;;;;5068999;28;39643;-75
2023/09/19 06:42:28;;;;;;;15.55;2.78;;;14.90;99.90;;;;;;5068287;28;38832;-74
2023/09/19 06:44:54;;;;;;;12.20;2.85;;;14.90;99.90;;;;;;5074354;28;39361;-74
2023/09/19 06:47:20;;;;;;;14.77;3.60;;;14.90;99.90;;;;;;5068457;28;37193;-73
2023/09/19 06:49:47;;;;;;;20.17;3.35;;;15.00;99.90;;;;;;5073900;28;36649;-74
2023/09/19 06:52:14;;;;;;;14.15;3.22;;;15.00;99.90;;;;;;5078580;28;39477;-75
2023/09/19 06:54:41;;;;;;;19.63;4.00;;;15.10;99.90;;;;;;5072243;28;38484;-74
2023/09/19 06:57:10;;;;;;;21.35;3.63;;;15.10;99.90;;;;;;5052972;28;37467;-73
2023/09/19 06:59:37;;;;;;;14.52;4.03;;;15.10;99.90;;;;;;5062379;28;36208;-74
2023/09/19 07:02:05;;;;;;;15.15;3.45;;;15.20;99.90;;;;;;5067691;28;37516;-72
2023/09/19 07:04:32;;;;;;;18.95;2.75;;;15.20;99.90;;;;;;5070992;28;38029;-72
2023/09/19 07:06:58;;;;;;;15.27;3.25;;;15.20;99.90;;;;;;5074225;28;38143;-74
2023/09/19 07:09:27;;;;;;;13.82;3.13;;;15.30;99.90;;;;;;5070706;28;38063;-75
2023/09/19 07:11:53;;;;;;;16.45;2.78;;;15.30;99.90;;;;;;5055712;28;37497;-78
2023/09/19 07:14:20;;;;;;;12.45;3.63;;;15.30;99.90;;;;;;5066903;28;39017;-77
2023/09/19 07:16:47;;;;;;;9.90;2.90;;;15.40;99.90;;;;;;5058936;28;36940;-78
2023/09/19 07:19:15;;;;;;;25.08;4.18;;;15.40;99.90;;;;;;5082363;28;37481;-77
2023/09/19 07:21:42;;;;;;;20.45;3.45;;;15.40;99.90;;;;;;5074534;28;39864;-77
2023/09/19 07:24:08;;;;;;;14.93;3.75;;;15.50;99.90;;;;;;5074803;28;38559;-75
2023/09/19 07:26:34;;;;;;;20.30;3.17;;;15.50;99.90;;;;;;5059604;28;38166;-75
2023/09/19 07:29:03;;;;;;;19.02;3.53;;;15.60;99.90;;;;;;5076486;28;37609;-75
2023/09/19 07:31:30;;;;;;;20.60;3.45;;;15.70;99.90;;;;;;5067235;28;48042;-75
2023/09/19 07:33:56;;;;;;;20.02;4.15;;;15.70;99.90;;;;;;5069166;28;37511;-77
2023/09/19 07:36:24;;;;;;;20.02;3.80;;;15.70;99.90;;;;;;5080115;28;37527;-77
2023/09/19 07:38:50;;;;;;;15.52;2.95;;;15.80;99.90;;;;;;5077920;28;36946;-76
2023/09/19 07:41:16;;;;;;;16.42;3.33;;;15.80;99.90;;;;;;5079473;28;38476;-76
2023/09/19 07:43:43;;;;;;;16.60;3.10;;;15.80;99.90;;;;;;5081496;28;38609;-74
2023/09/19 07:46:11;;;;;;;18.13;3.10;;;15.80;99.90;;;;;;5076110;28;37369;-76
2023/09/19 07:48:38;;;;;;;19.02;3.35;;;15.90;99.90;;;;;;5070659;28;37339;-75
2023/09/19 07:51:06;;;;;;;21.92;3.00;;;15.90;99.90;;;;;;5077365;28;42186;-76
2023/09/19 07:53:36;;;;;;;12.68;2.80;;;15.90;99.90;;;;;;5065942;28;37149;-77
2023/09/19 07:56:07;;;;;;;17.83;3.30;;;16.00;99.90;;;;;;5084650;28;37794;-76
2023/09/19 07:58:33;;;;;;;14.60;2.83;;;15.90;99.90;;;;;;5078618;28;50005;-76
2023/09/19 08:01:07;;;;;;;16.65;3.65;;;16.00;99.90;;;;;;5080205;28;38599;-77
2023/09/19 08:03:40;;;;;;;13.52;3.28;;;16.00;99.90;;;;;;5062298;28;48572;-75
2023/09/19 08:06:07;;;;;;;10.80;3.03;;;16.00;99.90;;;;;;5059661;28;36793;-76
2023/09/19 08:08:37;;;;;;;14.32;3.40;;;16.00;99.90;;;;;;5074500;28;37962;-76
2023/09/19 08:11:15;;;;;;;16.42;3.40;;;16.20;99.90;;;;;;5067842;28;38940;-76
2023/09/19 08:13:43;;;;;;;15.43;3.50;;;16.20;99.90;;;;;;5088541;28;38852;-77
2023/09/19 08:16:10;;;;;;;20.80;4.13;;;16.30;99.90;;;;;;5072171;28;38682;-77
2023/09/19 08:18:40;;;;;;;11.98;3.17;;;16.30;99.90;;;;;;5079908;28;36954;-78
2023/09/19 08:21:10;;;;;;;14.40;3.28;;;16.30;99.90;;;;;;5075656;28;40524;-78
2023/09/19 08:23:39;;;;;;;13.45;3.38;;;16.30;99.90;;;;;;5077897;28;36684;-76
2023/09/19 08:26:08;;;;;;;13.00;2.90;;;16.40;99.90;;;;;;5063519;28;37074;-79
2023/09/19 08:28:35;;;;;;;16.58;3.78;;;16.50;99.90;;;;;;5066421;28;37343;-77
2023/09/19 08:31:05;;;;;;;18.33;3.53;;;16.50;99.90;;;;;;5066877;28;37831;-78
2023/09/19 08:33:33;;;;;;;17.40;3.05;;;16.50;99.90;;;;;;5075050;28;46709;-78
2023/09/19 08:36:00;;;;;;;13.57;3.47;;;16.60;99.90;;;;;;5061353;28;38153;-77
2023/09/19 08:38:29;;;;;;;16.50;3.20;;;16.60;99.90;;;;;;5068055;28;35967;-78
2023/09/19 08:41:00;;;;;;;14.52;2.92;;;16.60;99.90;;;;;;5080895;28;38617;-78
2023/09/19 08:43:27;;;;;;;20.00;5.10;;;16.50;99.90;;;;;;5074621;28;39867;-79
2023/09/19 08:46:04;;;;;;;18.52;3.70;;;16.60;99.90;;;;;;5077353;28;37019;-77
2023/09/19 08:48:31;;;;;;;14.15;3.20;;;16.80;99.90;;;;;;5072413;28;48395;-75
2023/09/19 08:51:08;;;;;;;16.05;3.42;;;16.90;99.90;;;;;;5081331;28;38053;-76
2023/09/19 08:54:16;;;;;;;17.25;3.78;;;17.20;99.90;;;;;;5057503;28;47226;-75
2023/09/19 08:56:47;;;;;;;22.65;4.55;;;17.20;99.90;;;;;;5078116;28;48162;-75
2023/09/19 08:59:14;;;;;;;15.23;3.15;;;17.30;99.90;;;;;;5056044;28;37054;-74
2023/09/19 09:01:41;;;;;;;18.70;3.45;;;17.50;99.90;;;;;;5085612;28;38824;-75
2023/09/19 09:04:12;;;;;;;18.55;3.55;;;17.40;99.90;;;;;;5075356;28;39468;-75
2023/09/19 09:06:43;;;;;;;16.80;3.35;;;17.40;99.90;;;;;;5070369;28;36984;-75
2023/09/19 09:09:10;;;;;;;21.45;3.67;;;17.30;99.90;;;;;;5063873;28;35996;-77
2023/09/19 09:11:39;;;;;;;15.45;3.40;;;17.30;99.90;;;;;;5082537;28;38039;-75
2023/09/19 09:14:07;;;;;;;12.20;3.60;;;17.60;99.90;;;;;;5066353;28;38135;-76
2023/09/19 09:16:34;;;;;;;14.45;3.05;;;17.60;99.90;;;;;;5072661;28;39707;-75
2023/09/19 09:19:01;;;;;;;16.83;3.17;;;17.50;99.90;;;;;;5057479;28;38607;-75
2023/09/19 09:21:28;;;;;;;19.15;3.38;;;17.40;99.90;;;;;;5079916;28;47680;-74
2023/09/19 09:23:55;;;;;;;22.25;3.78;;;17.40;99.90;;;;;;5078642;28;38858;-74
2023/09/19 09:26:39;;;;;;;13.27;3.22;;;17.50;99.90;;;;;;5078771;28;37416;-75
2023/09/19 09:29:05;;;;;;;18.92;3.08;;;17.60;99.90;;;;;;5075118;28;35937;-75
2023/09/19 09:31:31;;;;;;;14.10;3.33;;;17.80;99.90;;;;;;5076083;28;37617;-75
2023/09/19 09:33:58;;;;;;;15.05;2.85;;;17.80;99.90;;;;;;5062875;28;37121;-75
2023/09/19 09:36:38;;;;;;;13.23;2.90;;;17.90;99.90;;;;;;5066755;28;38637;-75
2023/09/19 09:39:24;;;;;;;11.80;2.72;;;18.00;99.90;;;;;;5055527;28;37320;-75
2023/09/19 09:41:50;;;;;;;15.57;3.97;;;18.00;99.90;;;;;;5077645;28;38908;-76
2023/09/19 09:44:18;;;;;;;13.07;2.90;;;18.00;99.90;;;;;;5081050;28;38918;-77
2023/09/19 09:52:16;;;;;;;16.08;2.45;;;18.20;99.90;;;;;;5082344;28;38900;-77
2023/09/19 09:55:07;;;;;;;13.63;2.40;;;18.10;99.90;;;;;;5082216;28;47872;-77
2023/09/19 09:57:34;;;;;;;13.68;2.72;;;17.90;99.90;;;;;;5072899;28;47058;-76
2023/09/19 10:02:40;;;;;;;8.77;2.22;;;17.80;99.90;;;;;;5081174;28;39977;-77
2023/09/19 10:08:04;;;;;;;15.52;3.00;;;17.90;99.90;;;;;;5075443;28;39123;-77
2023/09/19 10:13:15;;;;;;;10.98;2.60;;;17.80;99.90;;;;;;5076344;28;39485;-78
2023/09/19 10:15:58;;;;;;;18.10;3.58;;;17.80;99.90;;;;;;5067261;28;38785;-78
2023/09/19 10:18:27;;;;;;;11.35;2.67;;;17.90;99.90;;;;;;5079544;28;38401;-77
2023/09/19 10:20:54;;;;;;;12.68;2.47;;;18.00;99.90;;;;;;5066643;28;38196;-78
2023/09/19 10:23:25;;;;;;;10.77;2.35;;;18.20;99.90;;;;;;5068832;28;38083;-79
2023/09/19 10:25:52;;;;;;;9.60;2.25;;;18.30;99.90;;;;;;5067283;28;37294;-80
2023/09/19 10:28:27;;;;;;;12.00;2.75;;;18.50;99.90;;;;;;5062885;28;37813;-82
2023/09/19 10:30:54;;;;;;;8.40;2.00;;;18.50;99.90;;;;;;5073138;28;37066;-82
2023/09/19 10:33:27;;;;;;;8.88;2.10;;;18.40;99.90;;;;;;5068897;28;38556;-80
2023/09/19 10:35:55;;;;;;;10.35;2.00;;;18.50;99.90;;;;;;5059209;28;37461;-80
2023/09/19 10:38:24;;;;;;;12.07;1.92;;;18.50;99.90;;;;;;5072270;28;36956;-80
2023/09/19 10:40:59;;;;;;;10.88;2.00;;;18.40;99.90;;;;;;5081738;28;37107;-79
2023/09/19 10:43:32;;;;;;;8.63;2.22;;;18.30;99.90;;;;;;5069858;28;37704;-79
2023/09/19 10:46:07;;;;;;;7.88;1.80;;;18.20;99.90;;;;;;5066859;28;37699;-79
2023/09/19 10:48:33;;;;;;;9.23;1.67;;;18.30;99.90;;;;;;5077088;28;47060;-79
2023/09/19 10:51:06;;;;;;;11.18;2.00;;;18.20;99.90;;;;;;5085297;28;37674;-78
2023/09/19 10:53:46;;;;;;;9.82;1.85;;;18.30;99.90;;;;;;5090491;28;48428;-79
2023/09/19 10:56:21;;;;;;;7.38;1.90;;;18.40;99.90;;;;;;5085361;28;38513;-80
2023/09/19 10:58:49;;;;;;;14.32;1.95;;;18.40;99.90;;;;;;5080358;28;37348;-80
2023/09/19 11:01:17;;;;;;;13.02;2.33;;;18.30;99.90;;;;;;5076731;28;36392;-78
2023/09/19 11:03:48;;;;;;;12.02;1.77;;;18.20;99.90;;;;;;5058683;28;37405;-79
2023/09/19 11:06:18;;;;;;;9.95;2.00;;;18.30;99.90;;;;;;5073841;28;39281;-78
2023/09/19 11:08:57;;;;;;;9.68;1.33;;;18.70;99.90;;;;;;5052532;28;38119;-80
2023/09/19 11:11:38;;;;;;;7.13;1.30;;;19.00;99.90;;;;;;5073673;28;36031;-79
2023/09/19 11:14:23;;;;;;;11.07;1.67;;;19.10;99.90;;;;;;5077521;28;37709;-78
2023/09/19 11:17:15;;;;;;;4.57;1.33;;;19.00;99.90;;;;;;5073022;28;37038;-77
2023/09/19 11:22:56;;;;;;;8.07;1.80;;;18.60;99.90;;;;;;5074876;28;48897;-78
2023/09/19 11:25:33;;;;;;;5.22;1.73;;;18.60;99.90;;;;;;5070985;28;37568;-80
2023/09/19 11:28:07;;;;;;;11.73;2.00;;;18.60;99.90;;;;;;5083023;28;37445;-78
2023/09/19 11:30:38;;;;;;;8.82;2.03;;;18.60;99.90;;;;;;5075560;28;48166;-82
2023/09/19 11:33:41;;;;;;;8.05;1.40;;;18.50;99.90;;;;;;5068913;28;37033;-78
2023/09/19 11:36:24;;;;;;;9.32;2.45;;;18.50;99.90;;;;;;5070864;28;37739;-80
2023/09/19 11:38:50;;;;;;;10.77;1.42;;;18.40;99.90;;;;;;5074582;28;38909;-79
2023/09/19 11:41:29;;;;;;;9.75;1.40;;;18.40;99.90;;;;;;5069127;28;38094;-78
2023/09/19 11:44:10;;;;;;;7.15;1.63;;;18.50;99.90;;;;;;5078260;28;36585;-78
2023/09/19 11:46:51;;;;;;;7.10;1.10;;;18.60;99.90;;;;;;5076930;28;48277;-79
2023/09/19 11:49:23;;;;;;;7.93;1.47;;;18.60;99.90;;;;;;5077004;28;37226;-79
2023/09/19 11:51:54;;;;;;;12.30;2.28;;;18.50;99.90;;;;;;5079249;28;39153;-78
2023/09/19 11:54:27;;;;;;;11.55;1.73;;;18.60;99.90;;;;;;5074557;28;37394;-78
2023/09/19 11:56:54;;;;;;;11.30;2.13;;;18.50;99.90;;;;;;5068453;28;37054;-78
2023/09/19 11:59:28;;;;;;;6.05;1.23;;;18.60;99.90;;;;;;5084215;28;39198;-78
2023/09/19 12:02:05;;;;;;;8.00;1.58;;;18.70;99.90;;;;;;5077413;28;37738;-80
2023/09/19 12:04:43;;;;;;;8.82;1.83;;;19.00;99.90;;;;;;5072969;28;47328;-78
2023/09/19 12:07:15;;;;;;;5.35;1.35;;;19.20;99.90;;;;;;5070991;28;39200;-77
2023/09/19 12:10:05;;;;;;;10.20;1.67;;;19.40;99.90;;;;;;5081997;28;38992;-78
2023/09/19 12:12:33;;;;;;;7.32;1.63;;;19.50;99.90;;;;;;5076555;28;47394;-77
2023/09/19 12:14:59;;;;;;;7.80;1.50;;;19.60;99.90;;;;;;5066075;28;37376;-78
2023/09/19 12:17:55;;;;;;;13.10;1.70;;;19.60;99.90;;;;;;5078634;28;37777;-79
2023/09/19 12:20:21;;;;;;;7.05;1.10;;;19.60;99.90;;;;;;5058040;28;38453;-79
2023/09/19 12:22:49;;;;;;;6.80;1.05;;;19.40;99.90;;;;;;5085257;28;38073;-80
2023/09/19 12:25:20;;;;;;;6.57;1.30;;;19.50;99.90;;;;;;5067547;28;37015;-79
2023/09/19 12:27:49;;;;;;;11.55;1.58;;;19.40;99.90;;;;;;5081497;28;39798;-81
2023/09/19 12:30:18;;;;;;;5.68;1.27;;;19.50;99.90;;;;;;5068189;28;38778;-81
2023/09/19 12:32:48;;;;;;;5.45;1.52;;;19.50;99.90;;;;;;5081163;28;36572;-81
2023/09/19 12:35:28;;;;;;;5.07;1.25;;;19.60;99.90;;;;;;5051745;28;35149;-81
2023/09/19 12:37:55;;;;;;;5.18;1.35;;;19.90;99.90;;;;;;5062539;28;38861;-79
2023/09/19 12:40:27;;;;;;;4.75;1.33;;;20.00;99.90;;;;;;5085672;28;39130;-79
2023/09/19 12:42:58;;;;;;;;;;;20.20;99.90;;;;;;5085250;28;37909;-79
2023/09/19 12:45:24;;;;;;;8.35;1.40;;;20.10;99.90;;;;;;5076428;28;36350;-81
2023/09/19 12:48:22;;;;;;;6.43;1.30;;;20.00;99.90;;;;;;5078277;28;38857;-76
2023/09/19 12:51:16;;;;;;;4.32;1.10;;;19.60;99.90;;;;;;5029307;28;47313;-77
2023/09/19 12:53:45;;;;;;;7.65;1.55;;;19.60;99.90;;;;;;5057174;28;47231;-78
2023/09/19 12:56:15;;;;;;;11.27;2.05;;;19.50;99.90;;;;;;5074220;28;38572;-80
2023/09/19 12:59:00;;;;;;;7.10;2.25;;;19.50;99.90;;;;;;5085500;28;36618;-78
2023/09/19 13:01:27;;;;;;;5.60;1.33;;;19.60;99.90;;;;;;5077882;28;47428;-78
2023/09/19 13:04:19;;;;;;;12.60;1.80;;;19.50;99.90;;;;;;5087617;28;38329;-78
2023/09/19 13:06:48;;;;;;;8.40;1.95;;;19.40;99.90;;;;;;5063322;28;47521;-83
2023/09/19 13:09:17;;;;;;;14.07;1.92;;;19.30;99.90;;;;;;5080424;28;38019;-78
2023/09/19 13:11:45;;;;;;;9.43;1.50;;;19.20;99.90;;;;;;5082328;28;38263;-78
2023/09/19 13:14:22;;;;;;;8.85;1.80;;;19.10;99.90;;;;;;5069792;28;37176;-79